createdAt,value
2019-02-28T00:00:37.198Z,36.10
2019-02-28T00:01:36.342Z,36.01
2019-02-28T00:02:36.414Z,36.10
2019-02-28T00:03:36.406Z,36.20
2019-02-28T00:04:36.435Z,36.20
2019-02-28T00:05:37.980Z,36.49
2019-02-28T00:06:36.500Z,36.58
2019-02-28T00:07:36.533Z,36.68
2019-02-28T00:08:36.563Z,36.58
2019-02-28T00:09:36.597Z,36.68
2019-02-28T00:10:36.628Z,36.68
2019-02-28T00:11:39.423Z,36.68
2019-02-28T00:12:36.693Z,36.87
2019-02-28T00:13:36.727Z,36.68
2019-02-28T00:14:36.760Z,36.68
2019-02-28T00:15:36.794Z,36.96
2019-02-28T00:16:36.821Z,36.87
2019-02-28T00:17:36.855Z,36.87
2019-02-28T00:18:36.888Z,36.87
2019-02-28T00:19:36.921Z,37.06
2019-02-28T00:20:36.952Z,36.87
2019-02-28T00:21:37.350Z,36.96
2019-02-28T00:22:37.016Z,37.06
2019-02-28T00:23:37.052Z,37.25
2019-02-28T00:24:37.080Z,37.63
2019-02-28T00:25:38.026Z,37.34
2019-02-28T00:26:37.154Z,37.34
2019-02-28T00:27:37.181Z,37.44
2019-02-28T00:28:37.209Z,37.73
2019-02-28T00:29:37.254Z,37.54
2019-02-28T00:30:40.591Z,37.73
2019-02-28T00:31:37.307Z,37.92
2019-02-28T00:32:37.341Z,37.92
2019-02-28T00:33:37.372Z,38.01
2019-02-28T00:34:39.348Z,37.92
2019-02-28T00:35:37.446Z,38.20
2019-02-28T00:36:37.468Z,38.20
2019-02-28T00:37:37.500Z,38.58
2019-02-28T00:38:37.534Z,37.92
2019-02-28T00:39:37.566Z,38.01
2019-02-28T00:40:38.527Z,38.68
2019-02-28T00:41:43.125Z,38.87
2019-02-28T00:42:37.661Z,38.49
2019-02-28T00:43:37.693Z,38.39
2019-02-28T00:44:37.726Z,38.29
2019-02-28T00:45:37.759Z,38.78
2019-02-28T00:46:37.790Z,38.78
2019-02-28T00:47:37.822Z,38.58
2019-02-28T00:48:37.853Z,38.68
2019-02-28T00:49:37.886Z,38.58
2019-02-28T00:50:37.918Z,38.78
2019-02-28T00:51:37.951Z,38.58
2019-02-28T00:52:37.982Z,38.87
2019-02-28T00:53:38.180Z,38.87
2019-02-28T00:54:43.199Z,38.78
2019-02-28T00:55:38.081Z,39.15
2019-02-28T00:56:38.120Z,39.42
2019-02-28T00:57:38.144Z,39.23
2019-02-28T00:58:38.177Z,39.25
2019-02-28T00:59:38.209Z,39.15
2019-02-28T01:00:38.259Z,39.44
2019-02-28T01:01:38.272Z,39.80
2019-02-28T01:02:38.306Z,39.73
2019-02-28T01:03:38.337Z,40.11
2019-02-28T01:04:38.366Z,39.25
2019-02-28T01:05:38.399Z,39.42
2019-02-28T01:06:41.766Z,39.80
2019-02-28T01:07:38.463Z,40.18
2019-02-28T01:08:38.498Z,39.92
2019-02-28T01:09:38.527Z,39.92
2019-02-28T01:10:39.254Z,39.92
2019-02-28T01:11:38.601Z,39.99
2019-02-28T01:12:38.627Z,39.82
2019-02-28T01:13:38.654Z,40.01
2019-02-28T01:14:38.696Z,39.90
2019-02-28T01:15:44.480Z,39.99
2019-02-28T01:16:38.752Z,40.18
2019-02-28T01:17:38.793Z,40.11
2019-02-28T01:18:38.824Z,40.11
2019-02-28T01:19:41.345Z,40.48
2019-02-28T01:20:38.881Z,40.68
2019-02-28T01:21:38.910Z,40.20
2019-02-28T01:22:38.949Z,40.58
2019-02-28T01:23:38.977Z,40.58
2019-02-28T01:24:39.007Z,40.48
2019-02-28T01:25:40.150Z,40.48
2019-02-28T01:26:39.071Z,40.39
2019-02-28T01:27:39.103Z,40.97
2019-02-28T01:28:39.134Z,40.48
2019-02-28T01:29:39.166Z,40.48
2019-02-28T01:30:40.626Z,40.20
2019-02-28T01:31:39.232Z,40.30
2019-02-28T01:32:39.262Z,40.39
2019-02-28T01:33:39.294Z,40.20
2019-02-28T01:34:39.326Z,40.30
2019-02-28T01:35:40.904Z,40.39
2019-02-28T01:36:39.388Z,40.58
2019-02-28T01:37:39.421Z,40.58
2019-02-28T01:38:39.455Z,40.58
2019-02-28T01:39:39.486Z,40.30
2019-02-28T01:40:39.518Z,40.58
2019-02-28T01:41:42.300Z,40.11
2019-02-28T01:42:39.581Z,40.11
2019-02-28T01:43:39.613Z,40.48
2019-02-28T01:44:39.661Z,40.68
2019-02-28T01:45:43.416Z,40.48
2019-02-28T01:46:39.708Z,40.58
2019-02-28T01:47:39.742Z,40.97
2019-02-28T01:48:39.771Z,40.97
2019-02-28T01:49:39.805Z,40.68
2019-02-28T01:50:39.835Z,40.87
2019-02-28T01:51:39.867Z,40.68
2019-02-28T01:52:44.337Z,40.68
2019-02-28T01:53:39.931Z,40.87
2019-02-28T01:54:39.964Z,40.87
2019-02-28T01:55:39.996Z,40.97
2019-02-28T01:56:40.042Z,41.06
2019-02-28T01:57:43.748Z,41.06
2019-02-28T01:58:40.090Z,41.35
2019-02-28T01:59:40.123Z,41.72
2019-02-28T02:00:40.154Z,41.63
2019-02-28T02:01:40.186Z,41.82
2019-02-28T02:02:40.219Z,41.72
2019-02-28T02:03:40.931Z,41.72
2019-02-28T02:04:40.292Z,41.61
2019-02-28T02:05:40.313Z,41.53
2019-02-28T02:06:40.345Z,41.99
2019-02-28T02:07:40.379Z,42.01
2019-02-28T02:08:40.411Z,41.89
2019-02-28T02:09:42.634Z,41.99
2019-02-28T02:10:40.472Z,42.28
2019-02-28T02:11:40.504Z,42.28
2019-02-28T02:12:40.536Z,42.28
2019-02-28T02:13:40.568Z,42.66
2019-02-28T02:14:44.662Z,42.56
2019-02-28T02:15:40.633Z,42.66
2019-02-28T02:16:40.668Z,42.37
2019-02-28T02:17:40.695Z,42.66
2019-02-28T02:20:23.410Z,42.56
2019-02-28T02:21:21.587Z,42.66
2019-02-28T02:23:23.646Z,43.23
2019-02-28T02:24:24.336Z,43.13
2019-02-28T02:26:25.762Z,43.42
2019-02-28T02:27:25.792Z,43.80
2019-02-28T02:29:27.874Z,43.71
2019-02-28T02:30:27.878Z,43.51
2019-02-28T02:32:37.238Z,43.61
2019-02-28T02:33:29.920Z,43.71
2019-02-28T02:35:21.921Z,43.90
2019-02-28T02:36:21.947Z,43.99
2019-02-28T02:38:24.017Z,44.09
2019-02-28T02:39:24.045Z,44.56
2019-02-28T02:41:26.101Z,44.56
2019-02-28T02:42:26.130Z,45.04
2019-02-28T02:44:31.742Z,44.85
2019-02-28T02:45:28.311Z,44.75
2019-02-28T02:47:32.359Z,44.75
2019-02-28T02:48:30.379Z,45.23
2019-02-28T02:50:35.817Z,45.14
2019-02-28T02:51:32.423Z,45.23
2019-02-28T02:53:41.529Z,46.09
2019-02-28T02:54:34.584Z,45.99
2019-02-28T02:56:40.719Z,45.99
2019-02-28T02:57:36.628Z,46.37
2019-02-28T02:59:39.480Z,46.75
2019-02-28T03:00:38.772Z,46.09
2019-02-28T03:02:40.866Z,46.18
2019-02-28T03:03:44.132Z,46.47
2019-02-28T03:05:35.793Z,46.56
2019-02-28T03:06:32.919Z,46.75
2019-02-28T03:08:37.322Z,47.13
2019-02-28T03:09:35.969Z,47.04
2019-02-28T03:11:38.042Z,46.94
2019-02-28T03:12:38.067Z,47.42
2019-02-28T03:14:40.128Z,47.42
2019-02-28T03:15:40.108Z,47.71
2019-02-28T03:17:46.676Z,47.99
2019-02-28T03:18:42.174Z,47.61
2019-02-28T03:20:44.246Z,47.42
2019-02-28T03:21:51.270Z,47.89
2019-02-28T03:23:46.267Z,47.89
2019-02-28T03:24:50.692Z,47.71
2019-02-28T03:26:48.406Z,48.27
2019-02-28T03:27:55.107Z,48.18
2019-02-28T03:29:50.532Z,48.66
2019-02-28T03:30:50.562Z,48.37
2019-02-28T03:32:52.674Z,49.04
2019-02-28T03:33:52.703Z,48.94
2019-02-28T03:35:54.744Z,48.92
2019-02-28T03:36:57.064Z,48.82
2019-02-28T03:38:56.780Z,49.01
2019-02-28T03:40:02.522Z,48.94
2019-02-28T03:41:58.953Z,49.32
2019-02-28T03:43:05.286Z,48.94
2019-02-28T03:44:56.610Z,49.42
2019-02-28T03:45:50.948Z,49.40
2019-02-28T03:47:58.449Z,49.32
2019-02-28T03:48:53.046Z,49.32
2019-02-28T03:50:55.563Z,49.68
2019-02-28T03:51:55.139Z,49.99
2019-02-28T03:53:57.175Z,49.51
2019-02-28T03:54:57.205Z,49.71
2019-02-28T03:56:59.255Z,49.51
2019-02-28T03:58:03.929Z,49.61
2019-02-28T04:00:01.302Z,49.80
2019-02-28T04:01:08.500Z,50.66
2019-02-28T04:03:03.389Z,50.35
2019-02-28T04:04:10.841Z,50.25
2019-02-28T04:06:05.514Z,50.25
2019-02-28T04:07:05.509Z,50.35
2019-02-28T04:09:08.940Z,50.25
2019-02-28T04:10:07.664Z,50.63
2019-02-28T04:12:09.784Z,50.82
2019-02-28T04:13:09.788Z,51.49
2019-02-28T04:15:05.823Z,51.87
2019-02-28T04:16:08.354Z,51.68
2019-02-28T04:18:07.611Z,52.25
2019-02-28T04:19:03.834Z,51.87
2019-02-28T04:21:10.415Z,52.34
2019-02-28T04:22:05.880Z,52.44
2019-02-28T04:24:12.680Z,52.44
2019-02-28T04:25:08.206Z,52.53
2019-02-28T04:27:10.303Z,52.82
2019-02-28T04:28:17.095Z,53.01
2019-02-28T04:30:12.391Z,53.11
2019-02-28T04:31:18.417Z,53.39
2019-02-28T04:33:14.488Z,53.67
2019-02-28T04:34:14.541Z,53.58
2019-02-28T04:36:16.652Z,53.96
2019-02-28T04:37:16.671Z,54.03
2019-02-28T04:39:18.720Z,54.35
2019-02-28T04:40:18.751Z,54.53
2019-02-28T04:42:20.990Z,54.53
2019-02-28T04:43:21.019Z,54.44
2019-02-28T04:45:12.982Z,54.35
2019-02-28T04:46:13.009Z,54.35
2019-02-28T04:48:15.041Z,54.69
2019-02-28T04:49:15.051Z,54.79
2019-02-28T04:51:17.125Z,54.69
2019-02-28T04:52:17.149Z,54.50
2019-02-28T04:54:19.574Z,55.46
2019-02-28T04:55:19.257Z,54.79
2019-02-28T04:57:23.282Z,55.36
2019-02-28T04:58:25.303Z,55.17
2019-02-28T05:00:27.333Z,55.08
2019-02-28T05:01:27.362Z,54.98
2019-02-28T05:03:31.387Z,55.46
2019-02-28T05:04:33.184Z,55.93
2019-02-28T05:06:35.478Z,55.74
2019-02-28T05:07:35.466Z,55.83
2019-02-28T05:09:39.498Z,56.12
2019-02-28T05:10:39.522Z,56.41
2019-02-28T05:12:43.548Z,56.41
2019-02-28T05:13:48.402Z,56.51
2019-02-28T05:15:38.494Z,56.41
2019-02-28T05:16:36.554Z,56.51
2019-02-28T05:18:40.579Z,57.36
2019-02-28T05:19:40.605Z,57.36
2019-02-28T05:21:44.630Z,57.26
2019-02-28T05:22:44.656Z,57.84
2019-02-28T05:24:48.684Z,57.17
2019-02-28T05:25:49.145Z,57.36
2019-02-28T05:27:52.764Z,57.55
2019-02-28T05:28:52.774Z,57.74
2019-02-28T05:30:56.796Z,58.12
2019-02-28T05:31:58.091Z,58.03
2019-02-28T05:34:00.867Z,58.59
2019-02-28T05:35:00.878Z,58.50
2019-02-28T05:37:04.903Z,59.27
2019-02-28T05:38:04.929Z,58.31
2019-02-28T05:40:08.960Z,59.07
2019-02-28T05:41:08.983Z,59.36
2019-02-28T05:43:13.008Z,59.64
2019-02-28T05:44:13.037Z,59.74
2019-02-28T05:46:17.084Z,59.36
2019-02-28T05:47:17.090Z,59.64
2019-02-28T05:49:21.116Z,59.14
2019-02-28T05:50:21.139Z,59.74
2019-02-28T05:52:25.188Z,59.61
2019-02-28T05:53:25.190Z,59.52
2019-02-28T05:55:18.142Z,59.74
2019-02-28T05:56:18.165Z,60.18
2019-02-28T05:58:22.191Z,59.74
2019-02-28T05:59:26.225Z,59.45
2019-02-28T06:01:26.246Z,60.09
2019-02-28T06:02:26.275Z,59.93
2019-02-28T06:04:30.299Z,60.09
2019-02-28T06:05:30.324Z,60.50
2019-02-28T06:07:34.352Z,59.99
2019-02-28T06:08:35.558Z,60.09
2019-02-28T06:10:38.420Z,59.90
2019-02-28T06:11:38.430Z,60.85
2019-02-28T06:13:42.457Z,60.88
2019-02-28T06:14:42.512Z,60.31
2019-02-28T06:16:47.490Z,59.93
2019-02-28T06:17:46.536Z,60.41
2019-02-28T06:19:50.564Z,60.88
2019-02-28T06:20:51.407Z,60.88
2019-02-28T06:22:54.617Z,60.88
2019-02-28T06:23:54.641Z,60.78
2019-02-28T06:25:59.369Z,60.88
2019-02-28T06:26:58.697Z,60.88
2019-02-28T06:29:05.076Z,60.69
2019-02-28T06:30:02.751Z,60.50
2019-02-28T06:32:06.804Z,60.69
2019-02-28T06:33:06.804Z,60.60
2019-02-28T06:34:59.972Z,60.66
2019-02-28T06:35:59.780Z,60.88
2019-02-28T06:38:06.691Z,60.60
2019-02-28T06:39:03.831Z,60.50
2019-02-28T06:41:08.671Z,61.07
2019-02-28T06:42:07.889Z,61.16
2019-02-28T06:44:11.911Z,61.16
2019-02-28T06:45:11.940Z,61.16
2019-02-28T06:47:15.985Z,61.16
2019-02-28T06:48:16.096Z,62.30
2019-02-28T06:50:09.134Z,62.30
2019-02-28T06:51:09.161Z,62.49
2019-02-28T06:53:13.185Z,64.02
2019-02-28T06:54:13.213Z,63.92
2019-02-28T06:56:22.205Z,64.02
2019-02-28T06:57:17.263Z,63.35
2019-02-28T06:59:21.288Z,62.78
2019-02-28T07:00:21.317Z,62.78
2019-02-28T07:02:25.355Z,63.07
2019-02-28T07:03:25.369Z,64.11
2019-02-28T07:05:18.316Z,63.07
2019-02-28T07:06:18.343Z,62.05
2019-02-28T07:08:24.938Z,64.53
2019-02-28T07:09:22.391Z,63.48
2019-02-28T07:11:26.436Z,63.01
2019-02-28T07:12:29.694Z,62.72
2019-02-28T07:14:30.470Z,61.96
2019-02-28T07:15:30.510Z,61.67
2019-02-28T07:17:34.553Z,61.29
2019-02-28T07:18:34.550Z,61.86
2019-02-28T07:20:38.577Z,61.48
2019-02-28T07:21:42.846Z,62.34
2019-02-28T07:23:42.626Z,61.96
2019-02-28T07:24:42.653Z,61.86
2019-02-28T07:26:48.236Z,62.24
2019-02-28T07:27:46.714Z,62.34
2019-02-28T07:29:50.774Z,62.72
2019-02-28T07:30:51.158Z,62.91
2019-02-28T07:32:54.818Z,62.81
2019-02-28T07:33:54.846Z,62.72
2019-02-28T07:36:09.449Z,62.81
2019-02-28T07:36:58.897Z,63.39
2019-02-28T07:39:04.514Z,63.48
2019-02-28T07:40:02.974Z,63.20
2019-02-28T07:42:06.982Z,63.39
2019-02-28T07:43:12.062Z,63.39
2019-02-28T07:44:59.978Z,63.57
2019-02-28T07:45:59.990Z,63.20
2019-02-28T07:48:04.013Z,63.76
2019-02-28T07:49:04.041Z,63.29
2019-02-28T07:51:08.070Z,63.39
2019-02-28T07:52:08.098Z,63.39
2019-02-28T07:54:12.704Z,63.29
2019-02-28T07:55:12.151Z,63.48
2019-02-28T07:57:17.320Z,62.81
2019-02-28T07:58:16.208Z,63.20
2019-02-28T08:00:20.259Z,62.56
2019-02-28T08:01:20.267Z,62.56
2019-02-28T08:03:24.317Z,62.56
2019-02-28T08:04:24.325Z,62.46
2019-02-28T08:06:28.355Z,61.99
2019-02-28T08:07:28.381Z,62.75
2019-02-28T08:09:32.437Z,63.04
2019-02-28T08:10:32.474Z,63.13
2019-02-28T08:12:36.478Z,62.94
2019-02-28T08:13:37.866Z,62.75
2019-02-28T08:15:29.484Z,62.56
2019-02-28T08:16:30.638Z,62.37
2019-02-28T08:18:33.513Z,62.37
2019-02-28T08:19:33.538Z,62.46
2019-02-28T08:21:43.939Z,61.99
2019-02-28T08:22:37.592Z,62.37
2019-02-28T08:24:41.616Z,61.16
2019-02-28T08:25:42.816Z,61.07
2019-02-28T08:27:45.707Z,61.16
2019-02-28T08:28:45.712Z,61.07
2019-02-28T08:30:54.980Z,60.59
2019-02-28T08:31:49.772Z,61.16
2019-02-28T08:33:53.798Z,60.97
2019-02-28T08:34:55.505Z,60.69
2019-02-28T08:36:57.875Z,60.97
2019-02-28T08:37:57.883Z,60.69
2019-02-28T08:40:01.907Z,60.30
2019-02-28T08:41:01.939Z,59.83
2019-02-28T08:43:05.978Z,60.14
2019-02-28T08:44:06.006Z,60.14
2019-02-28T08:46:12.111Z,59.86
2019-02-28T08:47:10.077Z,59.86
2019-02-28T08:49:14.125Z,59.48
2019-02-28T08:50:19.058Z,59.57
2019-02-28T08:52:18.225Z,59.48
2019-02-28T08:53:19.627Z,59.48
2019-02-28T08:55:11.184Z,59.48
2019-02-28T08:56:14.047Z,59.00
2019-02-28T08:58:15.260Z,59.19
2019-02-28T08:59:18.402Z,59.28
2019-02-28T09:01:19.362Z,59.41
2019-02-28T09:02:19.374Z,58.36
2019-02-28T09:04:23.413Z,58.46
2019-02-28T09:05:26.202Z,58.55
2019-02-28T09:07:16.613Z,57.79
2019-02-28T09:08:16.618Z,57.79
2019-02-28T09:10:20.648Z,57.60
2019-02-28T09:11:21.103Z,57.31
2019-02-28T09:13:25.114Z,56.96
2019-02-28T09:14:24.768Z,56.96
2019-02-28T09:16:28.800Z,55.55
2019-02-28T09:17:28.829Z,54.99
2019-02-28T09:19:36.057Z,52.53
2019-02-28T09:20:32.899Z,52.55
2019-02-28T09:22:36.937Z,50.67
2019-02-28T09:23:37.543Z,50.67
2019-02-28T09:25:29.935Z,49.55
2019-02-28T09:26:31.237Z,48.68
2019-02-28T09:28:33.987Z,46.53
2019-02-28T09:29:34.018Z,46.15
2019-02-28T09:31:39.054Z,44.73
2019-02-28T09:32:38.090Z,43.90
2019-02-28T09:34:42.167Z,41.90
2019-02-28T09:35:45.036Z,40.87
2019-02-28T09:37:46.241Z,40.22
2019-02-28T09:38:46.266Z,39.54
2019-02-28T09:40:50.334Z,38.41
2019-02-28T09:41:50.349Z,37.84
2019-02-28T09:43:56.880Z,37.16
2019-02-28T09:44:54.420Z,37.72
2019-02-28T09:47:05.640Z,39.04
2019-02-28T09:48:02.018Z,39.43
2019-02-28T09:50:02.568Z,39.81
2019-02-28T09:51:02.598Z,39.79
2019-02-28T09:53:06.642Z,40.56
2019-02-28T09:54:06.687Z,40.66
2019-02-28T09:56:10.769Z,41.40
2019-02-28T09:57:19.862Z,41.40
2019-02-28T09:59:14.815Z,41.21
2019-02-28T10:00:14.848Z,41.21
2019-02-28T10:02:26.018Z,40.83
2019-02-28T10:03:19.543Z,41.21
2019-02-28T10:05:11.943Z,41.69
2019-02-28T10:06:13.427Z,41.97
2019-02-28T10:08:15.914Z,42.07
2019-02-28T10:09:17.683Z,42.24
2019-02-28T10:11:21.715Z,42.24
2019-02-28T10:12:20.020Z,42.46
2019-02-28T10:14:25.663Z,41.88
2019-02-28T10:15:24.089Z,41.97
2019-02-28T10:17:29.037Z,41.60
2019-02-28T10:18:28.157Z,41.52
2019-02-28T10:20:32.249Z,41.04
2019-02-28T10:21:33.291Z,40.75
2019-02-28T10:23:36.331Z,40.96
2019-02-28T10:24:36.305Z,40.39
2019-02-28T10:26:40.353Z,39.72
2019-02-28T10:27:40.385Z,39.64
2019-02-28T10:29:44.435Z,38.78
2019-02-28T10:30:47.171Z,38.96
2019-02-28T10:32:48.531Z,38.10
2019-02-28T10:33:49.542Z,38.20
2019-02-28T10:35:52.592Z,37.74
2019-02-28T10:36:52.626Z,37.45
2019-02-28T10:38:56.672Z,36.54
2019-02-28T10:39:56.708Z,34.94
2019-02-28T10:42:01.598Z,30.79
2019-02-28T10:43:00.790Z,28.80
2019-02-28T10:44:53.759Z,25.48
2019-02-28T10:45:53.799Z,23.86
2019-02-28T10:48:02.930Z,21.00
2019-02-28T10:48:57.885Z,19.76
2019-02-28T10:51:12.842Z,17.17
2019-02-28T10:52:01.974Z,16.30
2019-02-28T10:54:06.036Z,15.05
2019-02-28T10:55:06.076Z,14.17
2019-02-28T10:57:10.157Z,14.18
2019-02-28T10:58:18.257Z,13.50
2019-02-28T11:00:14.260Z,13.42
2019-02-28T11:01:14.292Z,12.44
2019-02-28T11:02:19.020Z,12.34
2019-02-28T11:03:21.539Z,11.95
2019-02-28T11:05:07.997Z,11.76
2019-02-28T11:06:07.418Z,11.38
2019-02-28T11:08:12.882Z,10.78
2019-02-28T11:09:11.521Z,11.38
2019-02-28T11:11:15.601Z,11.37
2019-02-28T11:12:19.593Z,10.98
2019-02-28T11:14:19.711Z,11.36
2019-02-28T11:15:19.749Z,12.04
2019-02-28T11:17:23.827Z,12.32
2019-02-28T11:18:23.881Z,12.32
2019-02-28T11:20:27.921Z,12.04
2019-02-28T11:21:29.736Z,12.53
2019-02-28T11:23:32.033Z,12.14
2019-02-28T11:24:32.066Z,11.76
2019-02-28T11:26:36.137Z,11.08
2019-02-28T11:27:36.177Z,10.70
2019-02-28T11:29:40.239Z,10.13
2019-02-28T11:30:44.246Z,9.74
2019-02-28T11:32:44.352Z,8.36
2019-02-28T11:33:44.392Z,9.05
2019-02-28T11:35:37.370Z,8.86
2019-02-28T11:36:37.413Z,8.66
2019-02-28T11:38:41.471Z,8.85
2019-02-28T11:39:41.513Z,9.25
2019-02-28T11:41:45.573Z,8.56
2019-02-28T11:42:45.616Z,8.84
2019-02-28T11:44:49.703Z,9.24
2019-02-28T11:45:49.724Z,8.94
2019-02-28T11:47:53.775Z,8.65
2019-02-28T11:48:54.937Z,8.84
2019-02-28T11:50:57.911Z,9.13
2019-02-28T11:51:57.914Z,9.72
2019-02-28T11:54:01.973Z,9.63
2019-02-28T11:55:02.014Z,9.43
2019-02-28T11:57:06.883Z,9.33
2019-02-28T11:58:06.117Z,9.23
2019-02-28T12:00:10.173Z,9.14
2019-02-28T12:01:11.305Z,9.13
2019-02-28T12:03:14.274Z,9.91
2019-02-28T12:04:14.315Z,10.21
2019-02-28T12:06:18.373Z,9.72
2019-02-28T12:07:18.413Z,9.73
2019-02-28T12:09:22.473Z,8.66
2019-02-28T12:10:22.512Z,8.16
2019-02-28T12:12:26.591Z,8.75
2019-02-28T12:13:26.612Z,8.65
2019-02-28T12:15:19.588Z,8.46
2019-02-28T12:16:20.281Z,8.56
2019-02-28T12:18:23.693Z,8.18
2019-02-28T12:19:23.748Z,7.79
2019-02-28T12:21:27.791Z,7.10
2019-02-28T12:22:27.865Z,7.10
2019-02-28T12:24:32.351Z,7.69
2019-02-28T12:25:31.932Z,7.19
2019-02-28T12:27:36.027Z,7.97
2019-02-28T12:28:38.270Z,8.36
2019-02-28T12:29:36.080Z,8.46
2019-02-28T12:30:36.125Z,8.47
2019-02-28T12:31:36.569Z,8.27
2019-02-28T12:32:36.216Z,8.07
2019-02-28T12:33:36.263Z,7.98
2019-02-28T12:34:36.308Z,7.69
2019-02-28T12:35:40.268Z,7.30
2019-02-28T12:36:36.399Z,7.21
2019-02-28T12:37:36.446Z,7.11
2019-02-28T12:38:36.491Z,6.62
2019-02-28T12:39:37.057Z,6.23
2019-02-28T12:40:36.586Z,6.42
2019-02-28T12:41:36.630Z,6.72
2019-02-28T12:42:36.677Z,6.52
2019-02-28T12:43:36.725Z,6.71
2019-02-28T12:44:36.769Z,6.41
2019-02-28T12:45:36.813Z,6.71
2019-02-28T12:46:36.862Z,6.22
2019-02-28T12:47:38.617Z,6.22
2019-02-28T12:48:36.966Z,6.52
2019-02-28T12:49:37.001Z,6.71
2019-02-28T12:50:37.045Z,6.52
2019-02-28T12:51:39.669Z,5.93
2019-02-28T12:52:37.139Z,6.22
2019-02-28T12:53:37.189Z,6.51
2019-02-28T12:54:37.238Z,6.71
2019-02-28T12:55:39.022Z,6.90
2019-02-28T12:56:37.325Z,7.49
2019-02-28T12:57:37.380Z,7.49
2019-02-28T12:58:39.164Z,7.78
2019-02-28T12:59:37.464Z,7.97
2019-02-28T13:00:37.522Z,8.56
2019-02-28T13:01:37.557Z,8.65
2019-02-28T13:02:39.749Z,8.46
2019-02-28T13:03:37.649Z,8.84
2019-02-28T13:04:37.695Z,8.74
2019-02-28T13:05:37.741Z,9.12
2019-02-28T13:06:37.789Z,9.52
2019-02-28T13:07:37.835Z,9.23
2019-02-28T13:08:38.678Z,9.42
2019-02-28T13:09:37.927Z,9.81
2019-02-28T13:10:37.973Z,9.81
2019-02-28T13:11:38.029Z,9.90
2019-02-28T13:12:38.062Z,10.00
2019-02-28T13:13:38.109Z,10.38
2019-02-28T13:14:40.806Z,10.87
2019-02-28T13:15:38.204Z,10.77
2019-02-28T13:16:38.251Z,11.06
2019-02-28T13:17:38.291Z,11.35
2019-02-28T13:18:39.648Z,11.34
2019-02-28T13:19:38.386Z,11.54
2019-02-28T13:20:38.427Z,12.12
2019-02-28T13:21:38.475Z,12.12
2019-02-28T13:22:38.550Z,12.51
2019-02-28T13:23:38.562Z,12.51
2019-02-28T13:24:38.611Z,12.41
2019-02-28T13:25:38.651Z,12.21
2019-02-28T13:26:38.696Z,12.40
2019-02-28T13:27:41.460Z,12.79
2019-02-28T13:28:38.799Z,12.88
2019-02-28T13:29:38.833Z,12.97
2019-02-28T13:30:40.135Z,13.45
2019-02-28T13:31:38.921Z,13.93
2019-02-28T13:32:39.339Z,14.13
2019-02-28T13:33:39.010Z,14.61
2019-02-28T13:34:39.056Z,14.70
2019-02-28T13:35:45.216Z,15.58
2019-02-28T13:36:39.142Z,15.57
2019-02-28T13:37:40.756Z,16.14
2019-02-28T13:38:39.225Z,16.44
2019-02-28T13:39:39.273Z,16.72
2019-02-28T13:40:40.802Z,17.01
2019-02-28T13:41:39.357Z,16.43
2019-02-28T13:42:40.620Z,17.00
2019-02-28T13:43:39.451Z,17.48
2019-02-28T13:44:39.499Z,17.77
2019-02-28T13:45:39.535Z,18.05
2019-02-28T13:46:39.572Z,18.64
2019-02-28T13:47:42.068Z,18.73
2019-02-28T13:48:39.675Z,18.91
2019-02-28T13:49:39.700Z,19.49
2019-02-28T13:50:39.770Z,19.48
2019-02-28T13:51:41.998Z,19.87
2019-02-28T13:52:39.834Z,19.67
2019-02-28T13:53:39.872Z,20.14
2019-02-28T13:54:42.112Z,20.90
2019-02-28T13:55:39.957Z,21.48
2019-02-28T13:56:39.994Z,21.67
2019-02-28T13:57:40.705Z,22.33
2019-02-28T13:58:40.077Z,22.05
2019-02-28T13:59:40.117Z,22.14
2019-02-28T14:00:45.738Z,22.91
2019-02-28T14:01:40.200Z,23.19
2019-02-28T14:02:40.242Z,23.39
2019-02-28T14:03:42.209Z,23.11
2019-02-28T14:04:40.323Z,23.79
2019-02-28T14:05:41.446Z,23.00
2019-02-28T14:06:40.405Z,23.19
2019-02-28T14:07:40.446Z,23.87
2019-02-28T14:08:42.066Z,23.57
2019-02-28T14:09:40.528Z,23.96
2019-02-28T14:10:40.568Z,24.05
2019-02-28T14:11:41.904Z,24.92
2019-02-28T14:12:40.648Z,24.43
2019-02-28T14:13:40.690Z,25.20
2019-02-28T14:14:42.289Z,25.20
2019-02-28T14:15:40.772Z,25.39
2019-02-28T14:16:40.813Z,25.49
2019-02-28T14:17:40.845Z,25.49
2019-02-28T14:18:42.598Z,25.59
2019-02-28T14:19:40.925Z,25.59
2019-02-28T14:20:40.965Z,25.49
2019-02-28T14:21:41.005Z,25.29
2019-02-28T14:22:42.694Z,25.39
2019-02-28T14:23:41.087Z,25.68
2019-02-28T14:24:41.123Z,25.29
2019-02-28T14:25:41.365Z,25.29
2019-02-28T14:26:43.014Z,25.57
2019-02-28T14:27:41.241Z,25.96
2019-02-28T14:28:41.280Z,26.34
2019-02-28T14:29:43.017Z,26.73
2019-02-28T14:30:41.357Z,26.81
2019-02-28T14:31:41.398Z,26.91
2019-02-28T14:32:42.365Z,26.81
2019-02-28T14:33:41.474Z,27.38
2019-02-28T14:34:41.513Z,27.76
2019-02-28T14:35:41.555Z,28.34
2019-02-28T14:36:41.890Z,27.85
2019-02-28T14:37:41.633Z,28.89
2019-02-28T14:38:41.674Z,29.18
2019-02-28T14:39:42.648Z,29.86
2019-02-28T14:40:41.747Z,30.13
2019-02-28T14:41:41.786Z,30.69
2019-02-28T14:42:43.581Z,31.46
2019-02-28T14:43:41.864Z,31.56
2019-02-28T14:44:41.899Z,32.03
2019-02-28T14:45:42.915Z,32.41
2019-02-28T14:46:41.976Z,33.07
2019-02-28T14:47:42.015Z,33.45
2019-02-28T14:48:42.053Z,34.59
2019-02-28T14:49:43.900Z,34.68
2019-02-28T14:50:42.127Z,35.63
2019-02-28T14:51:42.168Z,36.47
2019-02-28T14:52:42.202Z,36.95
2019-02-28T14:53:42.252Z,37.05
2019-02-28T14:54:42.280Z,37.43
2019-02-28T14:55:42.316Z,38.20
2019-02-28T14:56:43.181Z,38.29
2019-02-28T14:57:42.389Z,38.39
2019-02-28T14:58:42.429Z,38.37
2019-02-28T14:59:42.464Z,38.37
2019-02-28T15:00:43.444Z,38.76
2019-02-28T15:01:42.539Z,39.14
2019-02-28T15:02:42.574Z,38.85
2019-02-28T15:03:42.615Z,39.04
2019-02-28T15:04:45.662Z,39.14
2019-02-28T15:05:42.688Z,39.41
2019-02-28T15:06:42.723Z,39.70
2019-02-28T15:07:42.760Z,40.27
2019-02-28T15:08:42.795Z,40.47
2019-02-28T15:09:42.832Z,40.75
2019-02-28T15:10:42.870Z,40.66
2019-02-28T15:11:43.599Z,41.04
2019-02-28T15:12:42.942Z,41.21
2019-02-28T15:13:42.978Z,41.40
2019-02-28T15:14:43.264Z,41.88
2019-02-28T15:15:43.050Z,42.36
2019-02-28T15:16:43.087Z,42.27
2019-02-28T15:17:43.123Z,42.46
2019-02-28T15:18:44.409Z,43.01
2019-02-28T15:19:43.196Z,43.01
2019-02-28T15:20:43.231Z,42.82
2019-02-28T15:21:43.298Z,43.10
2019-02-28T15:22:43.305Z,43.59
2019-02-28T15:23:43.340Z,43.87
2019-02-28T15:24:43.929Z,44.06
2019-02-28T15:25:43.417Z,44.35
2019-02-28T15:26:43.451Z,44.93
2019-02-28T15:27:43.483Z,44.71
2019-02-28T15:28:45.501Z,44.83
2019-02-28T15:29:43.556Z,45.00
2019-02-28T15:30:43.591Z,45.00
2019-02-28T15:31:44.277Z,45.00
2019-02-28T15:32:43.662Z,45.38
2019-02-28T15:33:43.698Z,45.48
2019-02-28T15:34:43.734Z,45.29
2019-02-28T15:35:46.493Z,45.96
2019-02-28T15:40:09.947Z,47.18
2019-02-28T15:41:09.978Z,47.37
2019-02-28T15:43:17.114Z,47.85
2019-02-28T15:44:12.144Z,47.85
2019-02-28T15:46:14.304Z,48.68
2019-02-28T15:47:14.334Z,48.78
2019-02-28T15:49:16.600Z,49.64
2019-02-28T15:50:17.165Z,50.12
2019-02-28T15:52:18.705Z,49.64
2019-02-28T15:53:18.738Z,50.12
2019-02-28T15:55:10.735Z,50.60
2019-02-28T15:56:13.616Z,50.89
2019-02-28T15:58:12.774Z,50.67
2019-02-28T15:59:14.822Z,50.95
2019-02-28T16:01:15.011Z,50.86
2019-02-28T16:02:15.021Z,51.91
2019-02-28T16:04:17.055Z,51.91
2019-02-28T16:05:17.072Z,51.62
2019-02-28T16:07:19.225Z,52.67
2019-02-28T16:09:43.273Z,52.58
2019-02-28T16:12:05.411Z,53.82
2019-02-28T16:13:05.442Z,54.02
2019-02-28T16:15:11.921Z,54.66
2019-02-28T16:15:57.560Z,54.66
2019-02-28T16:18:00.672Z,54.47
2019-02-28T16:19:00.701Z,54.56
2019-02-28T16:21:07.383Z,54.94
2019-02-28T16:22:05.143Z,55.68
2019-02-28T16:24:06.187Z,55.30
2019-02-28T16:25:06.213Z,55.20
2019-02-28T16:28:58.998Z,56.16
2019-02-28T16:29:52.289Z,56.06
2019-02-28T16:33:35.335Z,56.35
2019-02-28T16:34:35.363Z,56.63
2019-02-28T16:36:37.499Z,56.92
2019-02-28T16:37:37.529Z,57.65
2019-02-28T16:39:39.669Z,57.65
2019-02-28T16:40:39.681Z,58.04
2019-02-28T16:42:43.465Z,57.65
2019-02-28T16:43:41.774Z,57.94
2019-02-28T16:45:33.719Z,58.23
2019-02-28T16:46:33.747Z,58.70
2019-02-28T16:48:36.644Z,58.99
2019-02-28T16:50:57.916Z,58.80
2019-02-28T16:51:57.950Z,59.09
2019-02-28T16:54:00.174Z,59.44
2019-02-28T16:55:00.351Z,59.53
2019-02-28T16:57:04.234Z,59.44
2019-02-28T16:58:04.269Z,59.63